Time;durP1;ratioP1;P1;durP2;ratioP2;P2;SDS_P1;SDS_P2;PMS_P1;PMS_P2;Temp;Humidity;BMP_temperature;BMP_pressure;BME280_temperature;BME280_humidity;BME280_pressure;Samples;Min_cycle;Max_cycle;Signal;HPM_P1;HPM_P2
2023/05/23 00:00:27;;;;;;;6.90;5.60;;;;;;;11.61;68.10;97176.55;110285;1242;70697;-71
2023/05/23 00:03:17;;;;;;;8.90;5.60;;;;;;;11.54;68.38;97172.04;110167;1242;69245;-72
2023/05/23 00:05:50;;;;;;;8.60;5.20;;;;;;;11.46;68.10;97170.39;110223;1242;68535;-70
2023/05/23 00:08:19;;;;;;;6.50;4.20;;;;;;;11.41;68.08;97176.20;110211;1246;59751;-70
2023/05/23 00:10:50;;;;;;;9.60;5.80;;;;;;;11.36;67.66;97174.81;110206;1240;59654;-70
2023/05/23 00:13:21;;;;;;;9.70;5.90;;;;;;;11.33;68.46;97178.75;110226;1240;71519;-70
2023/05/23 00:15:51;;;;;;;12.90;7.10;;;;;;;11.30;70.84;97180.91;110222;1243;69336;-70
2023/05/23 00:18:23;;;;;;;9.50;5.90;;;;;;;11.27;71.94;97180.13;110189;1241;70068;-71
2023/05/23 00:20:53;;;;;;;8.30;4.80;;;;;;;11.22;72.44;97177.67;110146;1241;59731;-72
2023/05/23 00:23:24;;;;;;;7.80;4.20;;;;;;;11.16;71.43;97174.18;110213;1240;59713;-72
2023/05/23 00:25:55;;;;;;;7.20;4.30;;;;;;;11.09;71.53;97170.51;110225;1241;71394;-71
2023/05/23 00:28:25;;;;;;;6.60;4.10;;;;;;;11.04;71.19;97169.73;110255;1242;69260;-70
2023/05/23 00:30:56;;;;;;;6.30;4.30;;;;;;;10.99;72.85;97168.68;110174;1242;68728;-70
2023/05/23 00:33:31;;;;;;;5.20;3.80;;;;;;;10.94;72.32;97168.23;110184;1242;59693;-70
2023/05/23 00:36:03;;;;;;;6.10;4.00;;;;;;;10.88;71.02;97170.64;110175;1240;59705;-71
2023/05/23 00:38:34;;;;;;;5.50;3.90;;;;;;;10.82;71.60;97167.28;110240;1242;71103;-70
2023/05/23 00:41:06;;;;;;;5.40;3.60;;;;;;;10.76;71.33;97168.57;110229;1242;69232;-70
2023/05/23 00:43:40;;;;;;;5.90;4.10;;;;;;;10.72;71.83;97167.30;110133;1240;68352;-70
2023/05/23 00:46:13;;;;;;;4.70;3.30;;;;;;;10.69;71.03;97170.35;110193;1242;59689;-71
2023/05/23 00:48:45;;;;;;;4.90;3.10;;;;;;;10.66;69.14;97170.19;110096;1244;59660;-71
2023/05/23 00:51:18;;;;;;;5.60;4.00;;;;;;;10.63;71.50;97170.44;110214;1242;70652;-70
2023/05/23 00:53:49;;;;;;;6.50;4.00;;;;;;;10.60;75.25;97172.73;110203;1242;69179;-70
2023/05/23 00:56:21;;;;;;;5.30;4.20;;;;;;;10.57;76.08;97171.55;110213;1242;69277;-70
2023/05/23 00:58:54;;;;;;;7.00;4.40;;;;;;;10.53;75.46;97172.09;110251;1241;60084;-70
2023/05/23 01:01:26;;;;;;;7.30;5.40;;;;;;;10.46;76.96;97173.27;110207;1242;59659;-71
2023/05/23 01:03:57;;;;;;;8.20;5.00;;;;;;;10.41;77.71;97176.64;110180;1242;71335;-71
2023/05/23 01:06:29;;;;;;;6.70;4.70;;;;;;;10.38;78.48;97180.21;110228;1242;69235;-71
2023/05/23 01:09:02;;;;;;;5.70;4.40;;;;;;;10.32;78.16;97178.20;110236;1242;69848;-71
2023/05/23 01:11:42;;;;;;;5.10;3.50;;;;;;;10.26;76.17;97181.96;110189;1245;59718;-71
2023/05/23 01:14:42;;;;;;;5.50;3.70;;;;;;;10.23;76.91;97184.61;110225;1241;59698;-71
2023/05/23 01:17:29;;;;;;;5.20;4.00;;;;;;;10.20;75.67;97181.70;110213;1242;71415;-71
2023/05/23 01:20:11;;;;;;;4.90;3.90;;;;;;;10.13;77.33;97181.13;110097;1244;67511;-71
2023/05/23 01:22:59;;;;;;;5.60;3.90;;;;;;;10.07;76.92;97181.82;110224;1242;67559;-71
2023/05/23 01:25:49;;;;;;;5.80;4.80;;;;;;;10.00;75.44;97180.95;110206;1242;59748;-71
2023/05/23 01:28:25;;;;;;;10.00;7.00;;;;;;;9.94;77.18;97183.62;110225;1242;59701;-70
2023/05/23 01:31:01;;;;;;;7.80;5.70;;;;;;;9.83;79.77;97183.73;110210;1242;69637;-70
2023/05/23 01:33:34;;;;;;;10.80;6.10;;;;;;;9.72;79.23;97180.51;110137;1241;69400;-70
2023/05/23 01:36:08;;;;;;;9.50;5.80;;;;;;;9.65;83.92;97183.33;110205;1242;68339;-70
2023/05/23 01:38:41;;;;;;;7.70;5.10;;;;;;;9.57;83.19;97186.50;110183;1242;59737;-71
2023/05/23 01:41:12;;;;;;;6.00;4.30;;;;;;;9.49;82.70;97182.74;110241;1242;59737;-71
2023/05/23 01:43:43;;;;;;;6.10;3.90;;;;;;;9.42;80.15;97179.39;110202;1241;70446;-70
2023/05/23 01:46:14;;;;;;;7.00;4.80;;;;;;;9.37;79.51;97179.23;110212;1242;69421;-71
2023/05/23 01:48:47;;;;;;;6.90;4.50;;;;;;;9.32;85.07;97181.87;110199;1241;68539;-70
2023/05/23 01:51:22;;;;;;;6.10;4.80;;;;;;;9.28;85.73;97179.02;110218;1242;59677;-71
2023/05/23 01:53:51;;;;;;;15.30;9.30;;;;;;;9.26;87.63;97176.60;110191;1242;59709;-71
2023/05/23 01:56:22;;;;;;;17.40;9.70;;;;;;;9.22;87.91;97181.39;110142;1244;71872;-70
2023/05/23 01:58:53;;;;;;;14.20;9.70;;;;;;;9.14;85.76;97179.27;110206;1243;69076;-70
2023/05/23 02:01:26;;;;;;;11.90;7.90;;;;;;;9.06;85.67;97183.02;110129;1244;69356;-70
2023/05/23 02:04:00;;;;;;;10.40;7.30;;;;;;;8.99;89.05;97180.38;110197;1242;59777;-70
2023/05/23 02:06:33;;;;;;;9.50;6.70;;;;;;;8.96;89.16;97180.28;110222;1243;59725;-70
2023/05/23 02:09:05;;;;;;;8.30;6.20;;;;;;;8.92;87.12;97183.31;110104;1241;71216;-70
2023/05/23 02:11:36;;;;;;;7.10;5.30;;;;;;;8.91;85.76;97175.52;110146;1241;68671;-70
2023/05/23 02:14:10;;;;;;;6.40;4.80;;;;;;;8.92;85.17;97174.41;110181;1242;68592;-70
2023/05/23 02:16:41;;;;;;;6.40;5.30;;;;;;;8.94;84.42;97178.85;110163;1241;60021;-70
2023/05/23 02:19:11;;;;;;;;;;;;;;;8.93;85.42;97174.76;110227;1242;59737;-70
2023/05/23 02:21:44;;;;;;;8.50;5.80;;;;;;;8.92;84.70;97175.49;110194;1242;71161;-70
2023/05/23 02:24:16;;;;;;;10.30;6.00;;;;;;;8.91;85.50;97176.59;110213;1242;69253;-70
2023/05/23 02:26:47;;;;;;;6.70;5.20;;;;;;;8.92;86.97;97173.04;110201;1241;69757;-70
2023/05/23 02:29:21;;;;;;;9.50;6.40;;;;;;;8.90;87.69;97173.35;110118;1244;59740;-70
2023/05/23 02:31:53;;;;;;;26.20;12.80;;;;;;;8.86;87.48;97175.73;110191;1242;59672;-70
2023/05/23 02:34:24;;;;;;;16.10;10.30;;;;;;;8.80;87.88;97179.80;110110;1244;71464;-70
2023/05/23 02:36:56;;;;;;;23.30;14.30;;;;;;;8.73;89.95;97187.38;110192;1241;69407;-70
2023/05/23 02:39:27;;;;;;;17.60;10.30;;;;;;;8.69;89.16;97186.83;110090;1241;67872;-70
2023/05/23 02:41:58;;;;;;;12.50;8.30;;;;;;;8.64;84.80;97185.02;110166;1242;59665;-71
2023/05/23 02:44:28;;;;;;;10.50;6.80;;;;;;;8.63;83.63;97182.35;110090;1245;59758;-70
2023/05/23 02:46:59;;;;;;;12.10;7.50;;;;;;;8.61;83.95;97182.64;110160;1243;71791;-70
2023/05/23 02:49:29;;;;;;;8.50;5.90;;;;;;;8.58;84.38;97183.73;110199;1242;69214;-71
2023/05/23 02:52:03;;;;;;;8.60;5.40;;;;;;;8.55;86.96;97185.14;110108;1242;69289;-70
2023/05/23 02:54:34;;;;;;;12.50;9.00;;;;;;;8.46;90.98;97185.95;110106;1243;59738;-70
2023/05/23 02:57:06;;;;;;;12.50;6.80;;;;;;;8.36;92.53;97189.91;110166;1242;59724;-70
2023/05/23 02:59:38;;;;;;;12.10;7.80;;;;;;;8.31;90.05;97193.00;110187;1243;70873;-70
2023/05/23 03:02:10;;;;;;;8.80;6.50;;;;;;;8.27;87.19;97190.13;110188;1242;69152;-71
2023/05/23 03:04:40;;;;;;;13.10;8.70;;;;;;;8.27;85.18;97185.95;110177;1240;69908;-70
2023/05/23 03:07:11;;;;;;;11.00;8.00;;;;;;;8.26;88.57;97187.08;110173;1242;59686;-70
2023/05/23 03:09:56;;;;;;;12.60;6.90;;;;;;;8.25;87.94;97187.17;110184;1241;59675;-70
2023/05/23 03:12:28;;;;;;;7.70;5.10;;;;;;;8.25;86.73;97188.90;110138;1242;71750;-70
2023/05/23 03:14:58;;;;;;;6.40;5.20;;;;;;;8.23;87.12;97188.31;110120;1243;68269;-71
2023/05/23 03:17:28;;;;;;;9.50;6.70;;;;;;;8.24;88.40;97188.61;110091;1245;68719;-71
2023/05/23 03:19:59;;;;;;;10.80;6.40;;;;;;;8.25;86.92;97190.46;110116;1244;59824;-71
2023/05/23 03:22:31;;;;;;;13.50;8.10;;;;;;;8.25;86.53;97189.21;110210;1241;59756;-70
2023/05/23 03:25:04;;;;;;;9.60;6.50;;;;;;;8.25;86.75;97189.25;110209;1241;71274;-71
2023/05/23 03:27:34;;;;;;;8.70;5.50;;;;;;;8.22;86.98;97189.59;110190;1241;69246;-71
2023/05/23 03:30:04;;;;;;;10.50;6.90;;;;;;;8.20;89.94;97191.51;110120;1241;69267;-71
2023/05/23 03:32:34;;;;;;;12.30;6.90;;;;;;;8.16;92.65;97188.92;110134;1241;59670;-71
2023/05/23 03:35:07;;;;;;;13.00;7.80;;;;;;;8.15;94.31;97193.16;110145;1240;59729;-71
2023/05/23 03:37:36;;;;;;;7.30;5.70;;;;;;;8.15;94.05;97190.03;110186;1241;70842;-71
2023/05/23 03:40:08;;;;;;;6.80;5.80;;;;;;;8.18;88.83;97190.21;110130;1240;69480;-70
2023/05/23 03:42:38;;;;;;;6.50;5.40;;;;;;;8.23;93.82;97193.00;110203;1243;69346;-71
2023/05/23 03:45:07;;;;;;;8.30;5.00;;;;;;;8.28;92.92;97194.95;110196;1242;59759;-71
2023/05/23 03:47:38;;;;;;;8.10;5.30;;;;;;;8.35;92.74;97192.21;110223;1242;60099;-71
2023/05/23 03:50:09;;;;;;;8.60;5.60;;;;;;;8.42;93.12;97192.27;110173;1244;71383;-70
2023/05/23 03:52:38;;;;;;;;;;;;;;;8.48;92.38;97195.15;110185;1245;69864;-71
2023/05/23 03:55:10;;;;;;;;;;;;;;;8.53;88.09;97192.39;110216;1244;68433;-70
2023/05/23 03:57:39;;;;;;;9.30;5.80;;;;;;;8.54;87.62;97187.09;110104;1241;59759;-70
2023/05/23 04:00:11;;;;;;;10.80;6.20;;;;;;;8.56;87.78;97190.10;110218;1242;59676;-71
2023/05/23 04:02:50;;;;;;;9.20;7.30;;;;;;;8.61;94.82;97192.22;110238;1240;71722;-71
2023/05/23 04:05:24;;;;;;;17.00;10.00;;;;;;;8.68;95.70;97193.31;110255;1242;69645;-71
2023/05/23 04:07:55;;;;;;;12.00;7.90;;;;;;;8.77;96.76;97193.23;110220;1242;69179;-71
2023/05/23 04:10:25;;;;;;;14.00;8.30;;;;;;;8.86;95.71;97193.95;110218;1241;59676;-71
2023/05/23 04:12:56;;;;;;;10.70;7.10;;;;;;;8.98;94.03;97190.16;110106;1245;59758;-71
2023/05/23 04:15:26;;;;;;;12.70;8.20;;;;;;;9.13;90.65;97186.86;110228;1242;71379;-71
2023/05/23 04:17:59;;;;;;;11.50;8.40;;;;;;;9.32;93.64;97188.65;110201;1242;69250;-71
2023/05/23 04:20:30;;;;;;;12.70;8.40;;;;;;;9.49;91.60;97187.58;110192;1241;68336;-71
2023/05/23 04:23:00;;;;;;;12.60;8.70;;;;;;;9.64;91.81;97189.96;110110;1244;59739;-71
2023/05/23 04:25:33;;;;;;;14.40;9.40;;;;;;;9.78;91.75;97192.47;110170;1242;59686;-71
2023/05/23 04:28:26;;;;;;;10.70;7.80;;;;;;;9.93;91.06;97195.70;110233;1240;71427;-70
2023/05/23 04:30:57;;;;;;;9.30;7.40;;;;;;;10.04;89.19;97194.89;110188;1242;69050;-70
2023/05/23 04:33:29;;;;;;;9.60;6.90;;;;;;;10.19;88.84;97197.63;110188;1242;69288;-72
2023/05/23 04:35:59;;;;;;;9.10;7.10;;;;;;;10.36;88.28;97198.83;110191;1242;59734;-72
2023/05/23 04:38:30;;;;;;;10.70;6.10;;;;;;;10.49;88.07;97199.56;110180;1241;59728;-72
2023/05/23 04:41:00;;;;;;;7.50;6.30;;;;;;;10.62;88.13;97197.90;110168;1242;69732;-73
2023/05/23 04:43:42;;;;;;;8.50;6.70;;;;;;;10.80;87.87;97199.68;110227;1242;69830;-70
2023/05/23 04:46:35;;;;;;;7.90;5.80;;;;;;;10.99;86.99;97204.83;110230;1240;68516;-69
2023/05/23 04:49:28;;;;;;;6.70;5.90;;;;;;;11.17;84.52;97199.36;109993;1248;60146;-72
2023/05/23 04:51:58;;;;;;;7.10;5.20;;;;;;;11.31;83.23;97203.35;110225;1242;59688;-71
2023/05/23 04:54:30;;;;;;;6.50;5.60;;;;;;;11.42;82.79;97200.16;110287;1241;70597;-71
2023/05/23 04:57:03;;;;;;;6.40;5.00;;;;;;;11.59;82.61;97198.35;110244;1240;68353;-71
2023/05/23 04:59:32;;;;;;;;;;;;;;;11.76;81.66;97200.59;110307;1241;69208;-69
2023/05/23 05:02:01;;;;;;;7.00;5.70;;;;;;;11.94;81.36;97206.53;110128;1244;59726;-71
2023/05/23 05:04:30;;;;;;;7.40;4.90;;;;;;;12.20;81.02;97211.73;110253;1242;59669;-72
2023/05/23 05:07:02;;;;;;;8.00;5.10;;;;;;;12.56;79.43;97210.65;110154;1241;71400;-72
2023/05/23 05:09:32;;;;;;;7.30;5.40;;;;;;;12.93;78.05;97212.77;110161;1244;69198;-72
2023/05/23 05:12:02;;;;;;;6.60;4.90;;;;;;;13.37;77.21;97210.33;110146;1243;68725;-70
2023/05/23 05:14:32;;;;;;;;;;;;;;;13.87;75.28;97207.89;110263;1241;59703;-70
2023/05/23 05:17:02;;;;;;;6.20;4.90;;;;;;;14.36;70.42;97203.61;110185;1243;59679;-72
2023/05/23 05:19:40;;;;;;;9.20;5.30;;;;;;;14.84;68.11;97206.06;110165;1241;71727;-71
2023/05/23 05:22:09;;;;;;;5.20;4.50;;;;;;;15.27;67.77;97204.85;110193;1244;69256;-71
2023/05/23 05:24:39;;;;;;;5.60;4.60;;;;;;;15.67;67.57;97204.38;110198;1242;67580;-70
2023/05/23 05:27:10;;;;;;;6.60;4.70;;;;;;;16.14;63.69;97205.38;110138;1241;59758;-70
2023/05/23 05:29:41;;;;;;;6.20;4.80;;;;;;;16.38;62.92;97204.92;110249;1242;59702;-70
2023/05/23 05:32:10;;;;;;;6.90;4.90;;;;;;;16.66;64.32;97209.86;110153;1240;71641;-71
2023/05/23 05:34:41;;;;;;;7.60;4.80;;;;;;;16.85;63.55;97210.61;110188;1241;68745;-71
2023/05/23 05:37:13;;;;;;;7.00;5.00;;;;;;;16.96;61.78;97211.42;110183;1242;69831;-71
2023/05/23 05:39:43;;;;;;;8.40;5.20;;;;;;;17.00;61.86;97209.94;110194;1242;59694;-72
2023/05/23 05:42:13;;;;;;;8.30;5.60;;;;;;;16.96;59.86;97210.72;110221;1249;59662;-71
2023/05/23 05:44:41;;;;;;;7.50;4.90;;;;;;;16.99;60.70;97208.09;110148;1244;70963;-72
2023/05/23 05:47:12;;;;;;;;;;;;;;;17.06;60.88;97207.98;110253;1242;68588;-71
2023/05/23 05:49:41;;;;;;;6.90;4.70;;;;;;;17.12;58.96;97206.83;110155;1243;69721;-71
2023/05/23 05:52:10;;;;;;;8.60;5.20;;;;;;;17.10;56.11;97204.91;110252;1242;59721;-70
2023/05/23 05:54:40;;;;;;;;;;;;;;;17.04;59.78;97202.66;110188;1241;59692;-72
2023/05/23 05:57:09;;;;;;;6.70;4.40;;;;;;;17.05;58.21;97204.39;110163;1241;72174;-70
2023/05/23 05:59:38;;;;;;;6.40;4.30;;;;;;;17.07;58.28;97202.36;110213;1242;70297;-71
2023/05/23 06:02:08;;;;;;;8.20;4.80;;;;;;;17.25;57.20;97198.38;110181;1242;69263;-70
2023/05/23 06:04:37;;;;;;;7.90;4.70;;;;;;;17.64;57.50;97200.11;110124;1244;59753;-70
2023/05/23 06:07:07;;;;;;;4.60;3.90;;;;;;;17.95;55.93;97197.13;110131;1244;59729;-70
2023/05/23 06:09:36;;;;;;;5.60;4.70;;;;;;;18.47;57.10;97202.98;110094;1240;71447;-69
2023/05/23 06:12:05;;;;;;;7.40;4.90;;;;;;;18.86;52.61;97201.76;110138;1243;69263;-70
2023/05/23 06:14:35;;;;;;;8.30;4.60;;;;;;;18.85;51.12;97198.70;110179;1241;69462;-71
2023/05/23 06:17:04;;;;;;;7.60;4.50;;;;;;;19.07;50.49;97201.55;110156;1249;59649;-71
2023/05/23 06:19:33;;;;;;;5.00;3.80;;;;;;;19.36;50.15;97198.79;110249;1241;59689;-72
2023/05/23 06:22:03;;;;;;;6.10;4.00;;;;;;;19.90;49.50;97198.55;110144;1244;71323;-72
2023/05/23 06:24:32;;;;;;;6.40;4.10;;;;;;;20.37;48.57;97202.20;110229;1240;69285;-69
2023/05/23 06:27:03;;;;;;;6.20;4.10;;;;;;;20.37;47.27;97197.77;110199;1241;69279;-71
2023/05/23 06:29:34;;;;;;;6.70;4.10;;;;;;;20.74;47.01;97195.91;110160;1240;60122;-69
2023/05/23 06:32:04;;;;;;;7.80;4.10;;;;;;;20.94;46.74;97194.78;110238;1242;59685;-71
2023/05/23 06:34:33;;;;;;;8.10;4.00;;;;;;;21.03;46.20;97192.78;110227;1241;70599;-72
2023/05/23 06:37:02;;;;;;;6.90;4.00;;;;;;;21.35;45.89;97187.57;110179;1241;69331;-70
2023/05/23 06:39:31;;;;;;;5.50;4.10;;;;;;;21.51;45.03;97185.12;110173;1242;69197;-70
2023/05/23 06:42:04;;;;;;;7.20;4.30;;;;;;;21.70;45.43;97182.98;110220;1241;59702;-72
2023/05/23 06:44:41;;;;;;;6.70;3.80;;;;;;;22.37;44.89;97178.89;110245;1242;59695;-71
2023/05/23 06:47:12;;;;;;;5.90;3.90;;;;;;;22.13;44.21;97176.89;110258;1240;70471;-70
2023/05/23 06:49:42;;;;;;;6.10;4.20;;;;;;;22.22;44.34;97178.74;110161;1240;69817;-72
2023/05/23 06:52:11;;;;;;;4.80;3.60;;;;;;;22.77;43.79;97178.64;110215;1240;69254;-70
2023/05/23 06:54:40;;;;;;;5.50;3.60;;;;;;;23.02;41.79;97179.23;110196;1242;59741;-70
2023/05/23 06:57:11;;;;;;;4.60;3.10;;;;;;;23.28;42.27;97171.36;110139;1241;59738;-71
2023/05/23 06:59:40;;;;;;;3.60;3.00;;;;;;;23.48;41.07;97172.75;110220;1241;70687;-69
2023/05/23 07:02:11;;;;;;;5.40;3.50;;;;;;;23.62;40.16;97171.52;110198;1240;69846;-71
2023/05/23 07:04:40;;;;;;;4.10;2.90;;;;;;;23.62;40.17;97168.80;110150;1241;69916;-71
2023/05/23 07:07:16;;;;;;;5.80;3.10;;;;;;;23.55;41.13;97164.91;110122;1245;59721;-70
2023/05/23 07:09:45;;;;;;;;;;;;;;;23.55;40.14;97166.64;110211;1242;59637;-71
2023/05/23 07:12:18;;;;;;;5.20;3.10;;;;;;;23.56;40.28;97159.98;110174;1241;71644;-69
2023/05/23 07:14:49;;;;;;;4.50;3.40;;;;;;;23.38;39.89;97159.45;110229;1240;69271;-71
2023/05/23 07:17:19;;;;;;;5.40;3.20;;;;;;;22.81;40.44;97159.95;110157;1243;68313;-72
2023/05/23 07:19:48;;;;;;;5.50;3.20;;;;;;;22.99;40.94;97161.88;110191;1241;59671;-72
2023/05/23 07:22:18;;;;;;;4.40;3.20;;;;;;;23.08;41.06;97161.60;110215;1242;59699;-71
2023/05/23 07:24:47;;;;;;;3.80;2.80;;;;;;;23.40;40.03;97157.27;110143;1243;70563;-72
2023/05/23 07:27:17;;;;;;;4.20;3.30;;;;;;;23.19;39.36;97155.65;110245;1241;69193;-72
2023/05/23 07:29:46;;;;;;;;;;;;;;;23.67;38.65;97154.27;110210;1242;69690;-72
2023/05/23 07:32:16;;;;;;;3.00;2.60;;;;;;;23.99;36.55;97153.28;110164;1242;59740;-70
2023/05/23 07:34:46;;;;;;;6.00;3.40;;;;;;;24.16;36.15;97153.27;110127;1241;60295;-70
2023/05/23 07:37:15;;;;;;;3.30;3.00;;;;;;;24.51;35.83;97153.54;110199;1243;71376;-70
2023/05/23 07:39:45;;;;;;;5.40;3.30;;;;;;;24.59;35.35;97155.42;110257;1242;67965;-70
2023/05/23 07:42:14;;;;;;;3.50;2.80;;;;;;;24.84;35.24;97152.71;110175;1243;68553;-70
2023/05/23 07:44:43;;;;;;;4.60;2.80;;;;;;;24.83;34.84;97154.00;110164;1245;59688;-69
2023/05/23 07:47:12;;;;;;;;;;;;;;;24.69;33.97;97152.08;110208;1242;59686;-71
2023/05/23 07:49:41;;;;;;;3.80;3.00;;;;;;;24.62;34.14;97150.27;110204;1241;70222;-71
2023/05/23 07:52:10;;;;;;;;;;;;;;;24.84;33.99;97153.17;110181;1241;69283;-70
2023/05/23 07:54:39;;;;;;;3.10;2.60;;;;;;;25.13;33.10;97149.18;110157;1244;70400;-71
2023/05/23 07:57:09;;;;;;;4.00;2.80;;;;;;;25.20;32.78;97148.06;110097;1240;59721;-70
2023/05/23 07:59:39;;;;;;;4.30;3.00;;;;;;;25.38;32.71;97144.17;110156;1240;59740;-69
2023/05/23 08:02:08;;;;;;;4.60;2.90;;;;;;;25.70;32.79;97139.60;110122;1241;71365;-70
2023/05/23 08:04:39;;;;;;;4.50;3.10;;;;;;;26.01;31.08;97138.23;110319;1243;69890;-70
2023/05/23 08:07:08;;;;;;;4.50;2.90;;;;;;;26.05;30.86;97134.64;110163;1245;69880;-69
2023/05/23 08:09:46;;;;;;;5.10;3.10;;;;;;;25.47;31.37;97134.64;110122;1243;59818;-70
2023/05/23 08:12:17;;;;;;;3.90;2.90;;;;;;;25.56;31.44;97135.70;110303;1242;59674;-70
2023/05/23 08:14:46;;;;;;;4.50;2.90;;;;;;;25.61;32.11;97135.27;110234;1241;70640;-70
2023/05/23 08:17:25;;;;;;;3.80;2.90;;;;;;;25.72;31.43;97132.63;110260;1242;69608;-71
2023/05/23 08:19:55;;;;;;;3.80;2.80;;;;;;;25.85;31.67;97135.58;110179;1241;68498;-71
2023/05/23 08:22:24;;;;;;;4.20;3.00;;;;;;;25.74;30.87;97132.74;110307;1244;59698;-69
2023/05/23 08:24:53;;;;;;;4.80;2.80;;;;;;;25.45;31.70;97136.54;110295;1244;59737;-72
2023/05/23 08:27:22;;;;;;;;;;;;;;;25.76;32.15;97132.60;110288;1240;71347;-71
2023/05/23 08:29:55;;;;;;;4.10;2.80;;;;;;;26.02;32.10;97129.23;110222;1243;69685;-72
2023/05/23 08:32:24;;;;;;;4.70;3.00;;;;;;;25.98;31.57;97128.91;110263;1242;70047;-72
2023/05/23 08:34:57;;;;;;;3.70;2.60;;;;;;;25.89;31.30;97127.59;110317;1241;59777;-70
2023/05/23 08:37:26;;;;;;;4.00;2.90;;;;;;;26.23;31.72;97129.90;110325;1245;59706;-71
2023/05/23 08:39:56;;;;;;;3.30;2.60;;;;;;;26.85;31.79;97127.80;110269;1241;71230;-70
2023/05/23 08:42:42;;;;;;;4.30;2.70;;;;;;;27.21;31.24;97132.75;110255;1240;69776;-71
2023/05/23 08:45:12;;;;;;;4.10;2.90;;;;;;;27.58;30.15;97128.88;110236;1243;69303;-72
2023/05/23 08:47:43;;;;;;;4.00;3.00;;;;;;;27.58;29.13;97127.48;110332;1241;59650;-72
2023/05/23 08:50:17;;;;;;;4.90;3.10;;;;;;;27.46;29.57;97122.37;110276;1241;59695;-72
2023/05/23 08:52:56;;;;;;;4.50;3.00;;;;;;;27.22;30.21;97121.63;110196;1240;72110;-72
2023/05/23 08:55:29;;;;;;;3.30;2.70;;;;;;;27.53;29.86;97120.27;110301;1240;69739;-71
2023/05/23 08:57:59;;;;;;;4.30;2.90;;;;;;;27.75;29.66;97117.76;110196;1240;69267;-70
2023/05/23 09:00:37;;;;;;;4.60;2.90;;;;;;;27.94;29.25;97115.70;110158;1243;59667;-72
2023/05/23 09:03:08;;;;;;;3.80;2.70;;;;;;;28.09;29.19;97119.03;110155;1245;59729;-71
2023/05/23 09:06:01;;;;;;;4.40;2.90;;;;;;;28.26;29.48;97120.91;110284;1241;70670;-71
2023/05/23 09:08:31;;;;;;;4.70;2.80;;;;;;;28.41;29.00;97117.23;110329;1242;69227;-69
2023/05/23 09:11:02;;;;;;;4.10;2.60;;;;;;;28.54;28.66;97116.63;110193;1241;69836;-71
2023/05/23 09:13:33;;;;;;;3.30;2.60;;;;;;;28.80;27.97;97120.60;110146;1244;59721;-70
2023/05/23 09:16:05;;;;;;;3.70;2.20;;;;;;;29.14;27.29;97115.04;110126;1244;59706;-70
2023/05/23 09:18:41;;;;;;;4.20;2.80;;;;;;;29.37;26.69;97112.13;110218;1241;71643;-71
2023/05/23 09:21:12;;;;;;;4.00;2.40;;;;;;;29.21;26.95;97113.77;110164;1243;70063;-71
2023/05/23 09:23:59;;;;;;;3.60;2.60;;;;;;;29.41;27.21;97107.66;110212;1241;70106;-70
2023/05/23 09:26:29;;;;;;;3.90;3.10;;;;;;;28.93;26.60;97108.05;110251;1242;59715;-71
2023/05/23 09:29:00;;;;;;;4.70;3.10;;;;;;;28.68;27.10;97109.02;110230;1242;59678;-71
2023/05/23 09:31:31;;;;;;;3.80;3.20;;;;;;;28.81;27.38;97104.28;110150;1244;70664;-71
2023/05/23 09:34:02;;;;;;;4.20;2.90;;;;;;;29.06;26.40;97108.45;110356;1242;69187;-71
2023/05/23 09:36:33;;;;;;;3.60;2.90;;;;;;;29.11;26.45;97105.02;110242;1243;69397;-71
2023/05/23 09:39:07;;;;;;;5.00;3.10;;;;;;;29.38;26.38;97097.23;110250;1241;59766;-70
2023/05/23 09:41:36;;;;;;;3.70;2.70;;;;;;;29.57;26.40;97096.48;110170;1242;59682;-73
2023/05/23 09:44:09;;;;;;;3.70;2.80;;;;;;;29.84;25.94;97096.02;110245;1242;71980;-70
2023/05/23 09:46:38;;;;;;;4.10;2.90;;;;;;;29.99;24.99;97093.00;110181;1241;68185;-71
2023/05/23 09:49:17;;;;;;;3.10;2.80;;;;;;;29.90;24.55;97092.58;110283;1241;69269;-72
2023/05/23 09:52:01;;;;;;;3.50;2.50;;;;;;;29.53;25.31;97084.71;110267;1241;59711;-73
2023/05/23 09:54:30;;;;;;;5.80;2.80;;;;;;;29.81;24.66;97082.84;110229;1244;59721;-72
2023/05/23 09:57:01;;;;;;;;;;;;;;;29.48;25.75;97081.59;110279;1242;71784;-71
2023/05/23 09:59:33;;;;;;;3.70;2.20;;;;;;;29.43;26.75;97080.40;110184;1242;68274;-71
2023/05/23 10:02:06;;;;;;;3.60;2.40;;;;;;;30.30;25.81;97080.89;110276;1241;68819;-71
2023/05/23 10:04:37;;;;;;;4.70;2.40;;;;;;;30.32;24.76;97072.69;110210;1242;59688;-70
2023/05/23 10:07:14;;;;;;;5.20;3.00;;;;;;;30.24;24.17;97072.34;110211;1242;59699;-71
2023/05/23 10:09:50;;;;;;;4.10;2.70;;;;;;;29.65;24.42;97070.37;110217;1242;70942;-71
2023/05/23 10:12:43;;;;;;;3.00;2.50;;;;;;;29.53;24.49;97067.64;110219;1242;69179;-70
2023/05/23 10:15:15;;;;;;;5.10;2.60;;;;;;;29.39;24.21;97062.14;110217;1242;69281;-71
2023/05/23 10:17:58;;;;;;;4.70;2.60;;;;;;;29.64;24.70;97056.81;110216;1242;59766;-71
2023/05/23 10:20:33;;;;;;;3.60;2.70;;;;;;;29.62;24.53;97057.97;110241;1241;59702;-71
2023/05/23 10:23:04;;;;;;;4.10;2.90;;;;;;;29.57;24.27;97051.51;110216;1240;71304;-72
2023/05/23 10:25:35;;;;;;;4.40;2.60;;;;;;;29.37;24.45;97049.83;110216;1241;68859;-71
2023/05/23 10:28:06;;;;;;;3.90;2.50;;;;;;;29.26;24.83;97046.97;110196;1241;69275;-69
2023/05/23 10:30:36;;;;;;;3.30;2.20;;;;;;;28.97;25.49;97041.95;110143;1242;59671;-71
2023/05/23 10:33:07;;;;;;;3.90;2.60;;;;;;;28.94;26.08;97038.88;110220;1242;59702;-71
2023/05/23 10:35:51;;;;;;;3.50;2.80;;;;;;;29.13;26.33;97028.23;110207;1243;70498;-69
2023/05/23 10:38:37;;;;;;;3.80;3.10;;;;;;;29.19;26.20;97028.27;110159;1243;69522;-70
2023/05/23 10:41:10;;;;;;;3.90;2.80;;;;;;;29.36;26.02;97023.74;110205;1242;69747;-70
2023/05/23 10:43:42;;;;;;;4.00;2.80;;;;;;;29.27;26.16;97018.88;110224;1242;59681;-70
2023/05/23 10:46:14;;;;;;;4.80;3.10;;;;;;;29.08;25.80;97020.89;110190;1242;59646;-71
2023/05/23 10:48:44;;;;;;;4.10;3.00;;;;;;;28.75;25.46;97019.11;110189;1242;71953;-69
2023/05/23 10:51:14;;;;;;;4.40;3.10;;;;;;;28.23;26.19;97015.98;110180;1243;68835;-71
2023/05/23 10:53:45;;;;;;;3.70;3.20;;;;;;;27.93;26.80;97013.45;110188;1241;69533;-71
2023/05/23 10:56:22;;;;;;;4.20;3.10;;;;;;;27.82;27.53;97013.80;110222;1241;59756;-72
2023/05/23 10:58:55;;;;;;;5.20;2.70;;;;;;;27.24;28.00;97003.58;110205;1241;59701;-69
2023/05/23 11:01:26;;;;;;;3.40;2.60;;;;;;;27.46;28.46;97000.77;110184;1242;70463;-70
2023/05/23 11:03:55;;;;;;;3.70;3.30;;;;;;;27.82;28.00;97002.20;110158;1242;68579;-71
2023/05/23 11:06:43;;;;;;;;;;;;;;;27.64;27.22;97001.25;110202;1240;69056;-72
2023/05/23 11:09:18;;;;;;;2.70;2.30;;;;;;;27.83;27.27;97001.67;110191;1242;59699;-72
2023/05/23 11:11:50;;;;;;;3.20;2.80;;;;;;;28.46;26.98;96996.78;110210;1242;59652;-70
2023/05/23 11:14:32;;;;;;;5.00;2.80;;;;;;;28.66;26.72;96992.68;110188;1242;71233;-70
2023/05/23 11:17:11;;;;;;;5.10;3.00;;;;;;;28.97;27.45;96986.38;110169;1243;69300;-71
2023/05/23 11:20:05;;;;;;;4.10;2.70;;;;;;;28.86;28.78;96988.20;110147;1242;69264;-71
2023/05/23 11:22:35;;;;;;;3.90;2.70;;;;;;;29.19;27.99;96987.69;110163;1241;59691;-69
2023/05/23 11:25:09;;;;;;;3.40;2.60;;;;;;;29.31;26.94;96981.39;110169;1242;59744;-71
2023/05/23 11:27:40;;;;;;;3.80;2.70;;;;;;;28.77;26.58;96984.41;110210;1242;71992;-70
2023/05/23 11:30:14;;;;;;;4.80;3.00;;;;;;;28.82;26.70;96982.61;110201;1242;69816;-71
2023/05/23 11:32:52;;;;;;;3.60;2.80;;;;;;;28.54;27.89;96984.39;110179;1241;69525;-71
2023/05/23 11:35:22;;;;;;;4.40;3.00;;;;;;;28.29;27.34;96983.77;110177;1242;59683;-71
2023/05/23 11:37:51;;;;;;;;;;;;;;;28.18;28.34;96982.08;110239;1242;59739;-71
2023/05/23 11:40:35;;;;;;;6.00;3.30;;;;;;;28.44;28.18;96975.79;110180;1242;71974;-70
2023/05/23 11:43:06;;;;;;;6.90;3.30;;;;;;;28.33;27.63;96980.92;110223;1240;69288;-70
2023/05/23 11:45:37;;;;;;;3.90;2.80;;;;;;;27.95;27.56;96977.48;109770;1242;583369;-71
2023/05/23 11:48:13;;;;;;;4.20;2.90;;;;;;;27.67;27.98;96976.90;110220;1242;59622;-71
2023/05/23 11:50:51;;;;;;;5.00;3.00;;;;;;;27.32;28.46;96975.34;110231;1242;59736;-71
2023/05/23 11:53:23;;;;;;;4.90;3.20;;;;;;;26.90;28.64;96970.92;110172;1240;71258;-71